sensor_id;sensor_type;location;lat;lon;timestamp;temperature;humidity
21648;DHT22;10985;54.182;7.890;2023-04-06T00:00:39;6.30;99.90
21648;DHT22;10985;54.182;7.890;2023-04-06T00:03:04;6.40;99.90
21648;DHT22;10985;54.182;7.890;2023-04-06T00:05:30;6.30;99.90
21648;DHT22;10985;54.182;7.890;2023-04-06T00:07:58;6.30;99.90
21648;DHT22;10985;54.182;7.890;2023-04-06T00:10:23;6.30;99.90
21648;DHT22;10985;54.182;7.890;2023-04-06T00:12:49;6.30;99.90
21648;DHT22;10985;54.182;7.890;2023-04-06T12:44:13;30.50;55.40
21648;DHT22;10985;54.182;7.890;2023-04-06T12:46:39;30.20;56.40
21648;DHT22;10985;54.182;7.890;2023-04-06T12:49:04;30.30;55.60
21648;DHT22;10985;54.182;7.890;2023-04-06T12:51:30;30.20;55.50
21648;DHT22;10985;54.182;7.890;2023-04-06T12:53:58;30.20;54.70
21648;DHT22;10985;54.182;7.890;2023-04-06T12:56:24;30.00;54.20
21648;DHT22;10985;54.182;7.890;2023-04-06T12:58:51;30.20;53.40
21648;DHT22;10985;54.182;7.890;2023-04-06T13:01:17;30.20;53.00
21648;DHT22;10985;54.182;7.890;2023-04-06T13:03:42;30.10;52.80
21648;DHT22;10985;54.182;7.890;2023-04-06T13:06:09;29.90;53.10
21648;DHT22;10985;54.182;7.890;2023-04-06T13:08:35;29.60;53.20
21648;DHT22;10985;54.182;7.890;2023-04-06T13:11:02;29.30;53.90
21648;DHT22;10985;54.182;7.890;2023-04-06T13:13:29;29.20;54.00
21648;DHT22;10985;54.182;7.890;2023-04-06T13:16:02;28.80;54.30
21648;DHT22;10985;54.182;7.890;2023-04-06T13:18:29;28.40;55.10
21648;DHT22;10985;54.182;7.890;2023-04-06T13:20:55;27.90;56.10
21648;DHT22;10985;54.182;7.890;2023-04-06T13:23:22;27.10;57.10
21648;DHT22;10985;54.182;7.890;2023-04-06T13:25:47;26.70;57.70
21648;DHT22;10985;54.182;7.890;2023-04-06T13:28:12;26.20;58.70
21648;DHT22;10985;54.182;7.890;2023-04-06T13:30:38;25.80;58.90
21648;DHT22;10985;54.182;7.890;2023-04-06T13:33:04;25.30;59.90
21648;DHT22;10985;54.182;7.890;2023-04-06T13:35:30;24.90;60.70
21648;DHT22;10985;54.182;7.890;2023-04-06T13:37:55;24.40;62.70
21648;DHT22;10985;54.182;7.890;2023-04-06T13:40:21;24.00;64.40
21648;DHT22;10985;54.182;7.890;2023-04-06T13:42:47;23.60;66.20
21648;DHT22;10985;54.182;7.890;2023-04-06T13:45:12;23.20;67.40
21648;DHT22;10985;54.182;7.890;2023-04-06T13:47:38;22.70;69.20
21648;DHT22;10985;54.182;7.890;2023-04-06T13:50:04;22.30;70.80
21648;DHT22;10985;54.182;7.890;2023-04-06T13:52:30;21.90;72.90
21648;DHT22;10985;54.182;7.890;2023-04-06T13:54:55;21.50;75.50
21648;DHT22;10985;54.182;7.890;2023-04-06T13:57:21;21.10;77.20
21648;DHT22;10985;54.182;7.890;2023-04-06T13:59:46;20.70;79.40
21648;DHT22;10985;54.182;7.890;2023-04-06T14:02:12;20.40;81.50
21648;DHT22;10985;54.182;7.890;2023-04-06T14:04:38;20.10;84.10
21648;DHT22;10985;54.182;7.890;2023-04-06T14:07:04;19.70;87.00
21648;DHT22;10985;54.182;7.890;2023-04-06T14:09:32;19.40;90.00
21648;DHT22;10985;54.182;7.890;2023-04-06T14:11:58;19.10;91.70
21648;DHT22;10985;54.182;7.890;2023-04-06T14:14:24;18.90;92.90
21648;DHT22;10985;54.182;7.890;2023-04-06T14:16:51;18.70;94.30
21648;DHT22;10985;54.182;7.890;2023-04-06T14:19:17;18.50;95.70
21648;DHT22;10985;54.182;7.890;2023-04-06T14:21:43;18.20;96.70
21648;DHT22;10985;54.182;7.890;2023-04-06T14:24:10;18.00;97.70
21648;DHT22;10985;54.182;7.890;2023-04-06T14:26:36;17.80;98.40
21648;DHT22;10985;54.182;7.890;2023-04-06T14:29:03;17.60;99.70
21648;DHT22;10985;54.182;7.890;2023-04-06T14:31:29;17.50;99.90
21648;DHT22;10985;54.182;7.890;2023-04-06T14:33:55;17.40;99.90
21648;DHT22;10985;54.182;7.890;2023-04-06T14:36:21;17.20;99.90
21648;DHT22;10985;54.182;7.890;2023-04-06T14:38:46;17.10;99.90
21648;DHT22;10985;54.182;7.890;2023-04-06T14:41:17;17.00;99.90
21648;DHT22;10985;54.182;7.890;2023-04-06T14:43:45;16.90;99.90
21648;DHT22;10985;54.182;7.890;2023-04-06T14:46:11;16.80;99.90
21648;DHT22;10985;54.182;7.890;2023-04-06T14:48:37;16.60;99.90
21648;DHT22;10985;54.182;7.890;2023-04-06T14:51:02;16.50;99.90
21648;DHT22;10985;54.182;7.890;2023-04-06T14:53:28;16.40;99.90
21648;DHT22;10985;54.182;7.890;2023-04-06T14:55:56;16.30;99.90
21648;DHT22;10985;54.182;7.890;2023-04-06T14:58:22;16.20;99.90
21648;DHT22;10985;54.182;7.890;2023-04-06T15:00:48;16.10;99.90
21648;DHT22;10985;54.182;7.890;2023-04-06T15:03:14;16.00;99.90
21648;DHT22;10985;54.182;7.890;2023-04-06T15:05:40;16.00;99.90
21648;DHT22;10985;54.182;7.890;2023-04-06T15:08:06;15.90;99.90
21648;DHT22;10985;54.182;7.890;2023-04-06T15:10:34;15.80;99.90
21648;DHT22;10985;54.182;7.890;2023-04-06T15:13:01;15.70;99.90
21648;DHT22;10985;54.182;7.890;2023-04-06T15:15:26;15.60;99.90
21648;DHT22;10985;54.182;7.890;2023-04-06T15:17:52;15.50;99.90
21648;DHT22;10985;54.182;7.890;2023-04-06T15:20:17;15.50;99.90
21648;DHT22;10985;54.182;7.890;2023-04-06T15:22:44;15.40;99.90
21648;DHT22;10985;54.182;7.890;2023-04-06T15:25:10;15.40;99.90
21648;DHT22;10985;54.182;7.890;2023-04-06T15:27:35;15.30;99.90
21648;DHT22;10985;54.182;7.890;2023-04-06T15:30:01;15.20;99.90
21648;DHT22;10985;54.182;7.890;2023-04-06T15:32:26;15.10;99.90
21648;DHT22;10985;54.182;7.890;2023-04-06T15:34:53;15.00;99.90
21648;DHT22;10985;54.182;7.890;2023-04-06T15:37:19;14.90;99.90
21648;DHT22;10985;54.182;7.890;2023-04-06T15:39:44;14.80;99.90
21648;DHT22;10985;54.182;7.890;2023-04-06T15:42:10;14.80;99.90
21648;DHT22;10985;54.182;7.890;2023-04-06T15:44:35;14.70;99.90
21648;DHT22;10985;54.182;7.890;2023-04-06T15:47:01;14.60;99.90
21648;DHT22;10985;54.182;7.890;2023-04-06T15:49:26;14.60;99.90
21648;DHT22;10985;54.182;7.890;2023-04-06T15:51:52;14.50;99.90
21648;DHT22;10985;54.182;7.890;2023-04-06T15:54:17;14.40;99.90
21648;DHT22;10985;54.182;7.890;2023-04-06T15:56:45;14.30;99.90
21648;DHT22;10985;54.182;7.890;2023-04-06T15:59:11;14.20;99.90
21648;DHT22;10985;54.182;7.890;2023-04-06T16:01:36;14.10;99.90
21648;DHT22;10985;54.182;7.890;2023-04-06T16:04:05;14.10;99.90
21648;DHT22;10985;54.182;7.890;2023-04-06T16:06:31;14.00;99.90
21648;DHT22;10985;54.182;7.890;2023-04-06T16:08:56;13.90;99.90
21648;DHT22;10985;54.182;7.890;2023-04-06T16:11:22;13.90;99.90
21648;DHT22;10985;54.182;7.890;2023-04-06T16:13:47;13.80;99.90
21648;DHT22;10985;54.182;7.890;2023-04-06T16:16:13;13.70;99.90
21648;DHT22;10985;54.182;7.890;2023-04-06T16:18:38;13.60;99.90
21648;DHT22;10985;54.182;7.890;2023-04-06T16:21:04;13.60;99.90
21648;DHT22;10985;54.182;7.890;2023-04-06T16:23:30;13.50;99.90
21648;DHT22;10985;54.182;7.890;2023-04-06T16:25:55;13.50;99.90
21648;DHT22;10985;54.182;7.890;2023-04-06T16:28:22;13.40;99.90
21648;DHT22;10985;54.182;7.890;2023-04-06T16:30:49;13.40;99.90
21648;DHT22;10985;54.182;7.890;2023-04-06T16:33:15;13.30;99.90
21648;DHT22;10985;54.182;7.890;2023-04-06T16:35:44;13.30;99.90
21648;DHT22;10985;54.182;7.890;2023-04-06T16:38:10;13.20;99.90
21648;DHT22;10985;54.182;7.890;2023-04-06T16:40:36;13.20;99.90
21648;DHT22;10985;54.182;7.890;2023-04-06T16:43:01;13.10;99.90
21648;DHT22;10985;54.182;7.890;2023-04-06T16:45:27;13.10;99.90
21648;DHT22;10985;54.182;7.890;2023-04-06T16:47:52;13.10;99.90
21648;DHT22;10985;54.182;7.890;2023-04-06T16:50:18;13.00;99.90
21648;DHT22;10985;54.182;7.890;2023-04-06T16:52:43;13.00;99.90
21648;DHT22;10985;54.182;7.890;2023-04-06T16:55:09;12.90;99.90
21648;DHT22;10985;54.182;7.890;2023-04-06T16:57:35;12.90;99.90
21648;DHT22;10985;54.182;7.890;2023-04-06T17:00:01;12.90;99.90
21648;DHT22;10985;54.182;7.890;2023-04-06T17:02:27;12.90;99.90
21648;DHT22;10985;54.182;7.890;2023-04-06T17:04:53;12.80;99.90
21648;DHT22;10985;54.182;7.890;2023-04-06T17:07:18;12.80;99.90
21648;DHT22;10985;54.182;7.890;2023-04-06T17:09:46;12.70;99.90
21648;DHT22;10985;54.182;7.890;2023-04-06T17:12:13;12.60;99.90
21648;DHT22;10985;54.182;7.890;2023-04-06T17:14:38;12.50;99.90
21648;DHT22;10985;54.182;7.890;2023-04-06T17:17:04;12.50;99.90
21648;DHT22;10985;54.182;7.890;2023-04-06T17:19:30;12.40;99.90
21648;DHT22;10985;54.182;7.890;2023-04-06T17:21:55;12.20;99.90
21648;DHT22;10985;54.182;7.890;2023-04-06T17:24:21;12.20;99.90
21648;DHT22;10985;54.182;7.890;2023-04-06T17:26:46;12.10;99.90
21648;DHT22;10985;54.182;7.890;2023-04-06T17:29:12;12.00;99.90
21648;DHT22;10985;54.182;7.890;2023-04-06T17:31:37;12.00;99.90
21648;DHT22;10985;54.182;7.890;2023-04-06T17:34:03;11.90;99.90
21648;DHT22;10985;54.182;7.890;2023-04-06T17:36:28;11.80;99.90
21648;DHT22;10985;54.182;7.890;2023-04-06T17:38:54;11.80;99.90
21648;DHT22;10985;54.182;7.890;2023-04-06T17:41:20;11.80;99.90
21648;DHT22;10985;54.182;7.890;2023-04-06T17:43:46;11.70;99.90
21648;DHT22;10985;54.182;7.890;2023-04-06T17:46:12;11.70;99.90
21648;DHT22;10985;54.182;7.890;2023-04-06T17:48:37;11.70;99.90
21648;DHT22;10985;54.182;7.890;2023-04-06T17:51:03;11.60;99.90
21648;DHT22;10985;54.182;7.890;2023-04-06T17:53:29;11.60;99.90
21648;DHT22;10985;54.182;7.890;2023-04-06T17:56:02;11.60;99.90
21648;DHT22;10985;54.182;7.890;2023-04-06T17:58:28;11.50;99.90
21648;DHT22;10985;54.182;7.890;2023-04-06T18:00:53;11.50;99.90
21648;DHT22;10985;54.182;7.890;2023-04-06T18:03:19;11.40;99.90
21648;DHT22;10985;54.182;7.890;2023-04-06T18:05:44;11.40;99.90
21648;DHT22;10985;54.182;7.890;2023-04-06T18:08:10;11.40;99.90
21648;DHT22;10985;54.182;7.890;2023-04-06T18:10:37;11.30;99.90
21648;DHT22;10985;54.182;7.890;2023-04-06T18:13:03;11.30;99.90
21648;DHT22;10985;54.182;7.890;2023-04-06T18:15:29;11.20;99.90
21648;DHT22;10985;54.182;7.890;2023-04-06T18:17:55;11.20;99.90
21648;DHT22;10985;54.182;7.890;2023-04-06T18:20:21;11.20;99.90
21648;DHT22;10985;54.182;7.890;2023-04-06T18:22:46;11.10;99.90
21648;DHT22;10985;54.182;7.890;2023-04-06T18:25:12;11.10;99.90
21648;DHT22;10985;54.182;7.890;2023-04-06T18:27:37;11.00;99.90
21648;DHT22;10985;54.182;7.890;2023-04-06T18:30:03;11.10;99.90
21648;DHT22;10985;54.182;7.890;2023-04-06T18:32:29;11.00;99.90
21648;DHT22;10985;54.182;7.890;2023-04-06T18:34:56;10.90;99.90
21648;DHT22;10985;54.182;7.890;2023-04-06T18:37:23;11.00;99.90
21648;DHT22;10985;54.182;7.890;2023-04-06T18:39:49;10.90;99.90
21648;DHT22;10985;54.182;7.890;2023-04-06T18:42:15;10.90;99.90
21648;DHT22;10985;54.182;7.890;2023-04-06T18:44:40;10.80;99.90
21648;DHT22;10985;54.182;7.890;2023-04-06T18:47:06;10.80;99.90
21648;DHT22;10985;54.182;7.890;2023-04-06T18:49:31;10.80;99.90
21648;DHT22;10985;54.182;7.890;2023-04-06T18:51:57;10.80;99.90
21648;DHT22;10985;54.182;7.890;2023-04-06T18:54:23;10.80;99.90
21648;DHT22;10985;54.182;7.890;2023-04-06T18:56:49;10.70;99.90
21648;DHT22;10985;54.182;7.890;2023-04-06T18:59:14;10.70;99.90
21648;DHT22;10985;54.182;7.890;2023-04-06T19:01:41;10.60;99.90
21648;DHT22;10985;54.182;7.890;2023-04-06T19:04:10;10.60;99.90
21648;DHT22;10985;54.182;7.890;2023-04-06T19:06:35;10.60;99.90
21648;DHT22;10985;54.182;7.890;2023-04-06T19:09:02;10.60;99.90
21648;DHT22;10985;54.182;7.890;2023-04-06T19:11:29;10.50;99.90
21648;DHT22;10985;54.182;7.890;2023-04-06T19:13:55;10.50;99.90
21648;DHT22;10985;54.182;7.890;2023-04-06T19:16:21;10.50;99.90
21648;DHT22;10985;54.182;7.890;2023-04-06T19:18:47;10.50;99.90
21648;DHT22;10985;54.182;7.890;2023-04-06T19:21:17;10.50;99.90
21648;DHT22;10985;54.182;7.890;2023-04-06T19:23:48;10.40;99.90
21648;DHT22;10985;54.182;7.890;2023-04-06T19:26:15;10.40;99.90
21648;DHT22;10985;54.182;7.890;2023-04-06T19:28:42;10.40;99.90
21648;DHT22;10985;54.182;7.890;2023-04-06T19:31:08;10.40;99.90
21648;DHT22;10985;54.182;7.890;2023-04-06T19:33:35;10.40;99.90
21648;DHT22;10985;54.182;7.890;2023-04-06T19:36:01;10.40;99.90
21648;DHT22;10985;54.182;7.890;2023-04-06T19:38:26;10.30;99.90
21648;DHT22;10985;54.182;7.890;2023-04-06T19:40:52;10.30;99.90
21648;DHT22;10985;54.182;7.890;2023-04-06T19:43:18;10.30;99.90
21648;DHT22;10985;54.182;7.890;2023-04-06T19:45:45;10.30;99.90
21648;DHT22;10985;54.182;7.890;2023-04-06T19:48:11;10.30;99.90
21648;DHT22;10985;54.182;7.890;2023-04-06T19:50:36;10.30;99.90
21648;DHT22;10985;54.182;7.890;2023-04-06T19:53:02;10.30;99.90
21648;DHT22;10985;54.182;7.890;2023-04-06T19:55:28;10.20;99.90
21648;DHT22;10985;54.182;7.890;2023-04-06T19:57:53;10.20;99.90
21648;DHT22;10985;54.182;7.890;2023-04-06T20:00:19;10.20;99.90
21648;DHT22;10985;54.182;7.890;2023-04-06T20:02:45;10.20;99.90
21648;DHT22;10985;54.182;7.890;2023-04-06T20:05:10;10.20;99.90
21648;DHT22;10985;54.182;7.890;2023-04-06T20:07:36;10.20;99.90
21648;DHT22;10985;54.182;7.890;2023-04-06T20:10:03;10.20;99.90
21648;DHT22;10985;54.182;7.890;2023-04-06T20:12:29;10.20;99.90
21648;DHT22;10985;54.182;7.890;2023-04-06T20:14:54;10.20;99.90
21648;DHT22;10985;54.182;7.890;2023-04-06T20:17:21;10.20;99.90
21648;DHT22;10985;54.182;7.890;2023-04-06T20:19:47;10.10;99.90
21648;DHT22;10985;54.182;7.890;2023-04-06T20:22:14;10.10;99.90
21648;DHT22;10985;54.182;7.890;2023-04-06T20:24:39;10.10;99.90
21648;DHT22;10985;54.182;7.890;2023-04-06T20:27:05;10.10;99.90
21648;DHT22;10985;54.182;7.890;2023-04-06T20:29:30;10.10;99.90
21648;DHT22;10985;54.182;7.890;2023-04-06T20:31:57;10.10;99.90
21648;DHT22;10985;54.182;7.890;2023-04-06T20:34:23;10.10;99.90
21648;DHT22;10985;54.182;7.890;2023-04-06T20:36:50;10.10;99.90
21648;DHT22;10985;54.182;7.890;2023-04-06T20:39:15;10.10;99.90
21648;DHT22;10985;54.182;7.890;2023-04-06T20:41:41;10.10;99.90
21648;DHT22;10985;54.182;7.890;2023-04-06T20:44:07;10.10;99.90
21648;DHT22;10985;54.182;7.890;2023-04-06T20:46:33;10.10;99.90
21648;DHT22;10985;54.182;7.890;2023-04-06T20:48:58;10.10;99.90
21648;DHT22;10985;54.182;7.890;2023-04-06T20:51:24;10.10;99.90
21648;DHT22;10985;54.182;7.890;2023-04-06T20:53:50;10.10;99.90
21648;DHT22;10985;54.182;7.890;2023-04-06T20:56:17;10.00;99.90
21648;DHT22;10985;54.182;7.890;2023-04-06T20:58:43;10.00;99.90
21648;DHT22;10985;54.182;7.890;2023-04-06T21:01:15;10.00;99.90
21648;DHT22;10985;54.182;7.890;2023-04-06T21:03:42;10.00;99.90
21648;DHT22;10985;54.182;7.890;2023-04-06T21:06:08;10.00;99.90
21648;DHT22;10985;54.182;7.890;2023-04-06T21:08:35;9.90;99.90
21648;DHT22;10985;54.182;7.890;2023-04-06T21:11:01;9.90;99.90
21648;DHT22;10985;54.182;7.890;2023-04-06T21:13:26;9.90;99.90
21648;DHT22;10985;54.182;7.890;2023-04-06T21:15:53;9.80;99.90
21648;DHT22;10985;54.182;7.890;2023-04-06T21:18:19;9.90;99.90
21648;DHT22;10985;54.182;7.890;2023-04-06T21:20:45;9.90;99.90
21648;DHT22;10985;54.182;7.890;2023-04-06T21:23:10;9.80;99.90
21648;DHT22;10985;54.182;7.890;2023-04-06T21:25:36;9.80;99.90
21648;DHT22;10985;54.182;7.890;2023-04-06T21:28:02;9.80;99.90
21648;DHT22;10985;54.182;7.890;2023-04-06T21:30:27;9.70;99.90
21648;DHT22;10985;54.182;7.890;2023-04-06T21:32:53;9.70;99.90
21648;DHT22;10985;54.182;7.890;2023-04-06T21:35:18;9.70;99.90
21648;DHT22;10985;54.182;7.890;2023-04-06T21:37:44;9.60;99.90
21648;DHT22;10985;54.182;7.890;2023-04-06T21:40:11;9.60;99.90
21648;DHT22;10985;54.182;7.890;2023-04-06T21:42:37;9.60;99.90
21648;DHT22;10985;54.182;7.890;2023-04-06T21:45:02;9.50;99.90
21648;DHT22;10985;54.182;7.890;2023-04-06T21:47:28;9.50;99.90
21648;DHT22;10985;54.182;7.890;2023-04-06T21:49:53;9.40;99.90
21648;DHT22;10985;54.182;7.890;2023-04-06T21:52:19;9.40;99.90
21648;DHT22;10985;54.182;7.890;2023-04-06T21:54:44;9.40;99.90
21648;DHT22;10985;54.182;7.890;2023-04-06T21:57:10;9.40;99.90
21648;DHT22;10985;54.182;7.890;2023-04-06T21:59:38;9.40;99.90
21648;DHT22;10985;54.182;7.890;2023-04-06T22:02:03;9.40;99.90
21648;DHT22;10985;54.182;7.890;2023-04-06T22:04:30;9.30;99.90
21648;DHT22;10985;54.182;7.890;2023-04-06T22:06:55;9.30;99.90
21648;DHT22;10985;54.182;7.890;2023-04-06T22:09:21;9.30;99.90
21648;DHT22;10985;54.182;7.890;2023-04-06T22:11:46;9.20;99.90
21648;DHT22;10985;54.182;7.890;2023-04-06T22:14:12;9.20;99.90
21648;DHT22;10985;54.182;7.890;2023-04-06T22:16:38;9.20;99.90
21648;DHT22;10985;54.182;7.890;2023-04-06T22:19:03;9.20;99.90
21648;DHT22;10985;54.182;7.890;2023-04-06T22:21:29;9.20;99.90
21648;DHT22;10985;54.182;7.890;2023-04-06T22:23:55;9.20;99.90
21648;DHT22;10985;54.182;7.890;2023-04-06T22:26:21;9.20;99.90
21648;DHT22;10985;54.182;7.890;2023-04-06T22:28:47;9.10;99.90
21648;DHT22;10985;54.182;7.890;2023-04-06T22:31:13;9.10;99.90
21648;DHT22;10985;54.182;7.890;2023-04-06T22:33:38;9.10;99.90
21648;DHT22;10985;54.182;7.890;2023-04-06T22:36:04;9.10;99.90
21648;DHT22;10985;54.182;7.890;2023-04-06T22:38:29;9.10;99.90
21648;DHT22;10985;54.182;7.890;2023-04-06T22:40:55;9.10;99.90
21648;DHT22;10985;54.182;7.890;2023-04-06T22:43:21;9.10;99.90
21648;DHT22;10985;54.182;7.890;2023-04-06T22:45:46;9.00;99.90
21648;DHT22;10985;54.182;7.890;2023-04-06T22:48:11;9.10;99.90
21648;DHT22;10985;54.182;7.890;2023-04-06T22:50:37;9.00;99.90
21648;DHT22;10985;54.182;7.890;2023-04-06T22:53:02;9.00;99.90
21648;DHT22;10985;54.182;7.890;2023-04-06T22:55:28;9.00;99.90
21648;DHT22;10985;54.182;7.890;2023-04-06T22:57:53;9.00;99.90
21648;DHT22;10985;54.182;7.890;2023-04-06T23:00:19;9.00;99.90
21648;DHT22;10985;54.182;7.890;2023-04-06T23:02:44;8.90;99.90
21648;DHT22;10985;54.182;7.890;2023-04-06T23:05:10;8.90;99.90
21648;DHT22;10985;54.182;7.890;2023-04-06T23:07:36;8.90;99.90
21648;DHT22;10985;54.182;7.890;2023-04-06T23:10:01;8.90;99.90
21648;DHT22;10985;54.182;7.890;2023-04-06T23:12:27;8.90;99.90
21648;DHT22;10985;54.182;7.890;2023-04-06T23:14:53;8.80;99.90
21648;DHT22;10985;54.182;7.890;2023-04-06T23:17:18;8.90;99.90
21648;DHT22;10985;54.182;7.890;2023-04-06T23:19:44;8.80;99.90
21648;DHT22;10985;54.182;7.890;2023-04-06T23:22:10;8.80;99.90
21648;DHT22;10985;54.182;7.890;2023-04-06T23:24:35;8.80;99.90
21648;DHT22;10985;54.182;7.890;2023-04-06T23:27:01;8.80;99.90
21648;DHT22;10985;54.182;7.890;2023-04-06T23:29:26;8.70;99.90
21648;DHT22;10985;54.182;7.890;2023-04-06T23:31:52;8.70;99.90
21648;DHT22;10985;54.182;7.890;2023-04-06T23:34:17;8.70;99.90
21648;DHT22;10985;54.182;7.890;2023-04-06T23:36:42;8.70;99.90
21648;DHT22;10985;54.182;7.890;2023-04-06T23:39:08;8.70;99.90
21648;DHT22;10985;54.182;7.890;2023-04-06T23:41:33;8.70;99.90
21648;DHT22;10985;54.182;7.890;2023-04-06T23:43:59;8.60;99.90
21648;DHT22;10985;54.182;7.890;2023-04-06T23:46:25;8.60;99.90
21648;DHT22;10985;54.182;7.890;2023-04-06T23:48:50;8.60;99.90
21648;DHT22;10985;54.182;7.890;2023-04-06T23:51:16;8.60;99.90
21648;DHT22;10985;54.182;7.890;2023-04-06T23:53:41;8.60;99.90
21648;DHT22;10985;54.182;7.890;2023-04-06T23:56:08;8.50;99.90
21648;DHT22;10985;54.182;7.890;2023-04-06T23:58:33;8.50;99.90
